Time;durP1;ratioP1;P1;durP2;ratioP2;P2;SDS_P1;SDS_P2;PMS_P1;PMS_P2;Temp;Humidity;BMP_temperature;BMP_pressure;BME280_temperature;BME280_humidity;BME280_pressure;Samples;Min_cycle;Max_cycle;Signal;HPM_P1;HPM_P2
2022/04/03 00:00:06;;;;;;;4.57;1.52;;;1.90;99.90;;;;;;171149;28;1177;-72
2022/04/03 00:00:12;;;;;;;3.65;1.55;;;2.00;99.90;;;;;;171103;28;1328;-71
2022/04/03 00:00:18;;;;;;;3.27;1.53;;;2.00;99.90;;;;;;171084;28;1369;-71
2022/04/03 00:00:23;;;;;;;3.10;1.67;;;2.00;99.90;;;;;;171186;28;1345;-71
2022/04/03 00:00:29;;;;;;;3.05;1.75;;;1.90;99.90;;;;;;171778;28;1312;-71
2022/04/03 00:00:35;;;;;;;3.03;1.73;;;2.00;99.90;;;;;;171121;28;1319;-71
2022/04/03 00:00:41;;;;;;;2.90;1.70;;;1.90;99.90;;;;;;171126;28;1458;-72
2022/04/03 00:00:46;;;;;;;3.33;1.80;;;1.90;99.90;;;;;;171247;28;959;-72
2022/04/03 00:00:52;;;;;;;3.35;1.70;;;1.90;99.90;;;;;;170522;28;1451;-72
2022/04/03 00:00:58;;;;;;;3.47;1.80;;;1.90;99.90;;;;;;171815;28;1489;-72
2022/04/03 00:01:04;;;;;;;3.80;1.88;;;1.90;99.90;;;;;;171120;28;852;-72
2022/04/03 00:01:10;;;;;;;5.53;2.20;;;2.00;99.90;;;;;;171573;28;1290;-71
2022/04/03 00:01:17;;;;;;;5.57;2.27;;;1.90;99.90;;;;;;171794;28;1369;-72
2022/04/03 00:01:22;;;;;;;5.23;2.13;;;1.90;99.90;;;;;;171773;28;1264;-72
2022/04/03 00:01:28;;;;;;;5.03;2.00;;;1.90;99.90;;;;;;171788;28;1212;-72
2022/04/03 00:01:34;;;;;;;4.60;1.88;;;1.90;99.90;;;;;;171928;28;820;-72
2022/04/03 00:01:39;;;;;;;2.80;1.60;;;1.90;99.90;;;;;;170511;28;1256;-71
2022/04/03 00:01:45;;;;;;;2.53;1.50;;;1.90;99.90;;;;;;171230;28;816;-72
2022/04/03 00:01:51;;;;;;;2.60;1.60;;;1.90;99.90;;;;;;171168;28;1073;-71
2022/04/03 00:01:56;;;;;;;2.67;1.60;;;1.90;99.90;;;;;;171214;28;1078;-72
2022/04/03 00:02:03;;;;;;;2.72;1.60;;;1.90;99.90;;;;;;170572;29;848;-71
2022/04/03 00:02:10;;;;;;;3.40;1.50;;;2.00;99.90;;;;;;170424;29;1659;-71
2022/04/03 00:02:16;;;;;;;4.30;1.60;;;1.90;99.90;;;;;;171257;28;880;-71
2022/04/03 00:02:21;;;;;;;4.40;1.60;;;2.00;99.90;;;;;;171288;28;1160;-71
2022/04/03 00:02:27;;;;;;;4.53;1.70;;;1.90;99.90;;;;;;171204;28;1257;-72
2022/04/03 00:02:33;;;;;;;4.75;1.70;;;1.90;99.90;;;;;;171217;28;880;-71
2022/04/03 00:02:38;;;;;;;4.30;1.83;;;1.90;99.90;;;;;;171901;28;914;-72
2022/04/03 00:02:44;;;;;;;3.47;1.73;;;1.90;99.90;;;;;;171799;28;1247;-72
2022/04/03 00:02:49;;;;;;;3.17;1.70;;;1.90;99.90;;;;;;170460;28;1188;-71
2022/04/03 00:02:55;;;;;;;3.65;1.60;;;2.00;99.90;;;;;;170551;29;796;-72
2022/04/03 00:03:02;;;;;;;3.53;1.70;;;1.90;99.90;;;;;;171233;28;925;-72
2022/04/03 00:03:08;;;;;;;3.20;1.55;;;1.90;99.90;;;;;;171107;28;1314;-72
2022/04/03 00:03:13;;;;;;;3.90;1.50;;;1.90;99.90;;;;;;171898;28;892;-72
2022/04/03 00:03:19;;;;;;;4.18;1.55;;;1.90;99.90;;;;;;172468;28;1365;-72
2022/04/03 00:03:25;;;;;;;3.72;1.60;;;1.90;99.90;;;;;;171926;28;903;-72
2022/04/03 00:03:30;;;;;;;3.57;1.50;;;2.00;99.90;;;;;;171848;28;903;-72
2022/04/03 00:03:36;;;;;;;3.72;1.50;;;1.90;99.90;;;;;;171811;28;1350;-71
2022/04/03 00:03:41;;;;;;;3.50;1.60;;;1.90;99.90;;;;;;171899;28;863;-72
2022/04/03 00:03:47;;;;;;;3.22;1.67;;;1.90;99.90;;;;;;171917;28;1057;-71
2022/04/03 00:03:53;;;;;;;4.10;1.73;;;1.90;99.90;;;;;;170611;29;938;-71
2022/04/03 00:03:58;;;;;;;4.27;1.80;;;1.90;99.90;;;;;;171905;28;1026;-72
2022/04/03 00:04:04;;;;;;;4.05;1.90;;;1.90;99.90;;;;;;172459;28;1444;-72
2022/04/03 00:04:10;;;;;;;3.83;1.87;;;1.90;99.90;;;;;;172522;28;926;-71
2022/04/03 00:04:16;;;;;;;3.47;1.77;;;1.90;99.90;;;;;;171813;28;1101;-72
2022/04/03 00:04:22;;;;;;;3.37;1.73;;;1.90;99.90;;;;;;171911;28;796;-71
2022/04/03 00:04:28;;;;;;;3.27;1.60;;;2.00;99.90;;;;;;171161;28;1386;-71
2022/04/03 00:04:33;;;;;;;4.28;1.55;;;1.90;99.90;;;;;;172553;28;1224;-72
2022/04/03 00:04:39;;;;;;;5.53;1.63;;;1.90;99.90;;;;;;172546;28;851;-72
2022/04/03 00:04:45;;;;;;;5.72;1.65;;;2.00;99.90;;;;;;171795;28;1426;-71
2022/04/03 00:04:50;;;;;;;5.53;1.67;;;1.90;99.90;;;;;;171804;28;1422;-71
2022/04/03 00:04:56;;;;;;;5.80;1.75;;;2.00;99.90;;;;;;171909;28;1312;-72
2022/04/03 00:05:01;;;;;;;5.93;1.80;;;1.90;99.90;;;;;;170484;29;1363;-71
2022/04/03 00:05:08;;;;;;;4.13;1.73;;;1.90;99.90;;;;;;170508;29;911;-72
2022/04/03 00:05:14;;;;;;;4.20;1.83;;;1.90;99.90;;;;;;171092;28;1565;-71
2022/04/03 00:05:20;;;;;;;4.30;1.98;;;1.90;99.90;;;;;;171102;28;1379;-71
2022/04/03 00:05:26;;;;;;;4.17;1.97;;;2.00;99.90;;;;;;171922;28;986;-72
2022/04/03 00:05:38;;;;;;;3.82;1.98;;;2.00;99.90;;;;;;171950;28;1020;-71
2022/04/03 00:05:44;;;;;;;4.10;1.90;;;1.90;99.90;;;;;;171836;28;1209;-72
2022/04/03 00:05:49;;;;;;;3.60;1.70;;;2.00;99.90;;;;;;169822;29;1205;-71
2022/04/03 00:05:55;;;;;;;3.17;1.67;;;2.00;99.90;;;;;;170589;29;863;-72
2022/04/03 00:06:00;;;;;;;2.87;1.60;;;2.00;99.90;;;;;;171173;28;1489;-72
2022/04/03 00:06:06;;;;;;;2.30;1.50;;;2.00;99.90;;;;;;171141;28;1412;-72
2022/04/03 00:06:11;;;;;;;2.20;1.52;;;1.90;99.90;;;;;;171819;28;1303;-72
2022/04/03 00:06:18;;;;;;;2.43;1.57;;;2.00;99.90;;;;;;171132;28;1310;-71
2022/04/03 00:06:23;;;;;;;2.55;1.60;;;1.90;99.90;;;;;;169815;28;1444;-72
2022/04/03 00:06:29;;;;;;;2.70;1.67;;;1.90;99.90;;;;;;170426;29;1238;-71
2022/04/03 00:06:34;;;;;;;3.13;1.87;;;1.90;99.90;;;;;;171152;28;1339;-72
2022/04/03 00:06:40;;;;;;;3.13;1.95;;;1.90;99.90;;;;;;171875;28;914;-71
2022/04/03 00:06:46;;;;;;;3.10;1.92;;;1.90;99.90;;;;;;171147;28;1500;-72
2022/04/03 00:06:51;;;;;;;4.10;1.90;;;1.90;99.90;;;;;;171781;28;1574;-72
2022/04/03 00:06:59;;;;;;;4.00;1.90;;;1.90;99.90;;;;;;171853;28;899;-72
2022/04/03 00:07:05;;;;;;;3.70;1.70;;;1.90;99.90;;;;;;171957;28;871;-71
2022/04/03 00:07:11;;;;;;;3.83;1.70;;;1.90;99.90;;;;;;171912;28;883;-71
2022/04/03 00:07:16;;;;;;;3.88;1.70;;;1.90;99.90;;;;;;171759;28;1235;-72
2022/04/03 00:07:22;;;;;;;2.97;1.80;;;1.90;99.90;;;;;;171838;28;1311;-71
2022/04/03 00:07:27;;;;;;;3.05;1.83;;;2.00;99.90;;;;;;171975;28;848;-71
2022/04/03 00:07:33;;;;;;;3.07;1.80;;;1.90;99.90;;;;;;171915;28;868;-71
2022/04/03 00:07:39;;;;;;;2.83;1.80;;;1.90;99.90;;;;;;171850;28;1239;-72
2022/04/03 00:07:44;;;;;;;2.80;1.87;;;2.00;99.90;;;;;;172513;28;1180;-72
2022/04/03 00:07:50;;;;;;;2.63;1.80;;;1.90;99.90;;;;;;171792;28;1261;-71
2022/04/03 00:07:55;;;;;;;2.72;1.80;;;1.90;99.90;;;;;;172574;28;1066;-71
2022/04/03 00:08:01;;;;;;;2.40;1.77;;;1.90;99.90;;;;;;170471;28;1291;-71
2022/04/03 00:08:12;;;;;;;2.80;1.80;;;1.90;99.90;;;;;;170837;28;1743;-72
2022/04/03 00:08:18;;;;;;;3.13;1.77;;;1.90;99.90;;;;;;171253;28;946;-71
2022/04/03 00:08:27;;;;;;;3.43;1.90;;;2.00;99.90;;;;;;171770;28;1193;-71
2022/04/03 00:08:32;;;;;;;3.77;1.97;;;1.90;99.90;;;;;;171170;28;1313;-72
2022/04/03 00:08:38;;;;;;;3.72;2.00;;;2.00;99.90;;;;;;170470;29;1316;-71
2022/04/03 00:08:44;;;;;;;3.53;1.90;;;1.90;99.90;;;;;;169805;29;825;-71
2022/04/03 00:08:49;;;;;;;3.53;1.80;;;1.90;99.90;;;;;;169763;29;1221;-72
2022/04/03 00:08:56;;;;;;;4.22;1.90;;;2.00;99.90;;;;;;170573;29;1206;-72
2022/04/03 00:09:02;;;;;;;4.34;1.86;;;2.00;99.90;;;;;;170567;29;911;-71
2022/04/03 00:09:07;;;;;;;4.10;1.80;;;2.00;99.90;;;;;;170631;29;833;-72
2022/04/03 00:09:13;;;;;;;3.97;1.80;;;1.90;99.90;;;;;;170517;29;1233;-72
2022/04/03 00:09:18;;;;;;;3.88;1.90;;;2.00;99.90;;;;;;169760;29;1297;-71
2022/04/03 00:09:24;;;;;;;2.97;1.80;;;1.90;99.90;;;;;;170582;28;963;-72
2022/04/03 00:09:29;;;;;;;2.78;1.90;;;1.90;99.90;;;;;;170432;29;1904;-71
2022/04/03 00:09:35;;;;;;;2.80;1.97;;;2.00;99.90;;;;;;170412;29;1431;-72
2022/04/03 00:09:40;;;;;;;3.08;1.95;;;1.90;99.90;;;;;;171221;28;1211;-71
2022/04/03 00:09:46;;;;;;;3.33;2.00;;;1.90;99.90;;;;;;171178;28;974;-71
2022/04/03 00:09:52;;;;;;;3.65;1.98;;;1.90;99.90;;;;;;170455;28;1457;-71
2022/04/03 00:09:57;;;;;;;4.03;1.93;;;1.90;99.90;;;;;;170632;29;849;-71
2022/04/03 00:10:03;;;;;;;4.10;1.90;;;1.90;99.90;;;;;;171271;28;769;-72
2022/04/03 00:10:09;;;;;;;3.83;1.83;;;1.90;99.90;;;;;;170498;29;1208;-71
2022/04/03 00:10:14;;;;;;;3.78;1.80;;;1.90;99.90;;;;;;171101;28;1540;-71
2022/04/03 00:10:22;;;;;;;3.80;1.80;;;1.90;99.90;;;;;;171792;28;1364;-71
2022/04/03 00:10:27;;;;;;;3.52;1.80;;;1.90;99.90;;;;;;171050;28;1312;-71
2022/04/03 00:10:34;;;;;;;3.65;1.80;;;1.90;99.90;;;;;;171294;28;863;-72
2022/04/03 00:10:41;;;;;;;3.78;1.92;;;1.90;99.90;;;;;;171215;28;899;-71
2022/04/03 00:10:47;;;;;;;3.74;2.02;;;1.90;99.90;;;;;;171212;28;915;-71
2022/04/03 00:10:52;;;;;;;3.30;1.94;;;1.90;99.90;;;;;;171121;28;1892;-71
2022/04/03 00:10:59;;;;;;;3.20;2.00;;;1.90;99.90;;;;;;171732;28;1177;-72
2022/04/03 00:11:05;;;;;;;3.13;2.17;;;1.90;99.90;;;;;;171804;28;1393;-71
2022/04/03 00:11:10;;;;;;;3.20;2.08;;;1.90;99.90;;;;;;171933;28;1204;-72
2022/04/03 00:11:16;;;;;;;3.17;2.00;;;1.90;99.90;;;;;;171898;28;867;-72
2022/04/03 00:11:22;;;;;;;3.10;2.00;;;1.90;99.90;;;;;;171158;28;1274;-72
2022/04/03 00:11:29;;;;;;;2.87;1.83;;;1.90;99.90;;;;;;171838;28;1367;-72
2022/04/03 00:11:34;;;;;;;3.24;1.72;;;1.90;99.90;;;;;;171130;28;1355;-72
2022/04/03 00:11:41;;;;;;;3.37;1.70;;;1.90;99.90;;;;;;171886;28;1289;-72
2022/04/03 00:11:47;;;;;;;3.43;1.70;;;1.90;99.90;;;;;;171919;28;860;-71
2022/04/03 00:11:53;;;;;;;3.70;1.77;;;1.90;99.90;;;;;;171960;28;876;-72
2022/04/03 00:11:58;;;;;;;4.20;1.77;;;2.00;99.90;;;;;;171802;28;1337;-72
2022/04/03 00:12:04;;;;;;;3.50;1.70;;;1.90;99.90;;;;;;171165;28;1359;-72
2022/04/03 00:12:10;;;;;;;3.30;1.70;;;1.90;99.90;;;;;;171316;28;931;-71
2022/04/03 00:12:16;;;;;;;3.22;1.60;;;2.00;99.90;;;;;;171047;28;1315;-71
2022/04/03 00:12:23;;;;;;;3.40;1.60;;;1.90;99.90;;;;;;172503;28;1250;-71
2022/04/03 00:12:29;;;;;;;3.16;1.70;;;1.90;99.90;;;;;;171927;28;971;-71
2022/04/03 00:12:35;;;;;;;3.47;1.77;;;1.90;99.90;;;;;;171187;28;1342;-71
2022/04/03 00:12:41;;;;;;;3.80;1.80;;;2.00;99.90;;;;;;172561;28;1014;-72
2022/04/03 00:12:47;;;;;;;3.67;1.80;;;2.00;99.90;;;;;;171923;28;871;-71
2022/04/03 00:12:53;;;;;;;3.43;1.77;;;1.90;99.90;;;;;;171268;28;896;-72
2022/04/03 00:12:59;;;;;;;3.28;1.70;;;1.90;99.90;;;;;;171859;28;891;-72
2022/04/03 00:13:04;;;;;;;2.72;1.63;;;1.90;99.90;;;;;;171785;28;1331;-72
2022/04/03 00:13:10;;;;;;;2.63;1.67;;;2.00;99.90;;;;;;171857;28;1220;-71
2022/04/03 00:13:15;;;;;;;2.80;1.73;;;1.90;99.90;;;;;;171149;28;1228;-72
2022/04/03 00:13:21;;;;;;;2.90;1.80;;;1.90;99.90;;;;;;171209;28;828;-72
2022/04/03 00:13:26;;;;;;;2.85;1.83;;;1.90;99.90;;;;;;170486;28;1418;-72
2022/04/03 00:13:32;;;;;;;3.20;1.80;;;1.90;99.90;;;;;;171801;28;1208;-71
2022/04/03 00:13:38;;;;;;;3.30;1.80;;;1.90;99.90;;;;;;171104;28;1217;-72
2022/04/03 00:13:44;;;;;;;3.17;1.77;;;1.90;99.90;;;;;;171874;28;828;-72
2022/04/03 00:13:50;;;;;;;3.13;1.63;;;2.00;99.90;;;;;;171155;28;1412;-71
2022/04/03 00:13:56;;;;;;;3.42;1.63;;;1.90;99.90;;;;;;171273;28;856;-71
2022/04/03 00:14:03;;;;;;;3.03;1.60;;;1.90;99.90;;;;;;171279;28;1121;-71
2022/04/03 00:14:10;;;;;;;3.02;1.66;;;2.00;99.90;;;;;;171084;28;1514;-72
2022/04/03 00:14:15;;;;;;;2.90;1.80;;;1.90;99.90;;;;;;171079;28;1393;-72
2022/04/03 00:14:21;;;;;;;3.13;1.80;;;1.90;99.90;;;;;;171231;28;788;-71
2022/04/03 00:14:26;;;;;;;3.22;1.77;;;1.90;99.90;;;;;;171776;28;1579;-71
2022/04/03 00:14:32;;;;;;;3.33;1.87;;;1.90;99.90;;;;;;171255;28;879;-71
2022/04/03 00:14:37;;;;;;;3.30;1.80;;;1.90;99.90;;;;;;172536;28;1333;-71
2022/04/03 00:14:43;;;;;;;3.37;1.70;;;1.90;99.90;;;;;;170470;28;1655;-72
2022/04/03 00:14:49;;;;;;;3.90;1.73;;;1.90;99.90;;;;;;171104;28;1454;-72
2022/04/03 00:14:55;;;;;;;3.47;1.77;;;1.90;99.90;;;;;;171805;28;1331;-71
2022/04/03 00:15:00;;;;;;;3.35;1.73;;;1.90;99.90;;;;;;171926;28;863;-71
2022/04/03 00:15:06;;;;;;;3.50;1.73;;;1.90;99.90;;;;;;172233;28;1408;-71
2022/04/03 00:15:14;;;;;;;3.80;1.77;;;1.90;99.90;;;;;;171152;28;1319;-71
2022/04/03 00:15:19;;;;;;;3.37;1.77;;;1.90;99.90;;;;;;171219;28;880;-71
2022/04/03 00:15:25;;;;;;;3.45;1.90;;;1.90;99.90;;;;;;171103;28;1196;-71
2022/04/03 00:15:31;;;;;;;3.37;1.87;;;2.00;99.90;;;;;;171211;28;958;-71
2022/04/03 00:15:41;;;;;;;4.00;1.98;;;1.90;99.90;;;;;;171765;28;1451;-72
2022/04/03 00:15:46;;;;;;;5.49;2.01;;;1.90;99.90;;;;;;171885;28;1118;-71
2022/04/03 00:15:52;;;;;;;6.53;2.00;;;1.90;99.90;;;;;;171763;28;1232;-71
2022/04/03 00:15:57;;;;;;;7.63;1.95;;;1.90;99.90;;;;;;169921;28;1563;-71
2022/04/03 00:16:06;;;;;;;7.70;1.92;;;1.90;99.90;;;;;;170444;29;1361;-72
2022/04/03 00:16:12;;;;;;;7.13;1.80;;;1.90;99.90;;;;;;171261;28;1652;-72
2022/04/03 00:16:18;;;;;;;4.95;1.80;;;1.90;99.90;;;;;;172392;28;1553;-71
2022/04/03 00:16:24;;;;;;;4.78;1.70;;;1.90;99.90;;;;;;171871;28;955;-72
2022/04/03 00:16:32;;;;;;;3.10;1.65;;;1.90;99.90;;;;;;171840;28;1576;-71
2022/04/03 00:16:37;;;;;;;3.37;1.80;;;1.90;99.90;;;;;;171933;28;896;-72
2022/04/03 00:16:43;;;;;;;3.00;1.80;;;2.00;99.90;;;;;;171937;28;1177;-72
2022/04/03 00:16:48;;;;;;;3.80;1.88;;;1.90;99.90;;;;;;171844;28;896;-72
2022/04/03 00:16:54;;;;;;;3.75;1.92;;;1.90;99.90;;;;;;171251;28;989;-71
2022/04/03 00:17:00;;;;;;;4.03;1.93;;;1.90;99.90;;;;;;171796;28;1395;-72
2022/04/03 00:17:05;;;;;;;5.10;1.90;;;1.90;99.90;;;;;;171159;28;1341;-72
2022/04/03 00:17:11;;;;;;;5.07;1.88;;;2.00;99.90;;;;;;171284;28;883;-72
2022/04/03 00:17:17;;;;;;;4.80;1.73;;;1.90;99.90;;;;;;171788;28;1418;-71
2022/04/03 00:17:22;;;;;;;4.90;1.70;;;2.00;99.90;;;;;;171867;28;852;-71
2022/04/03 00:17:28;;;;;;;4.47;1.60;;;1.90;99.90;;;;;;172481;28;1170;-72
2022/04/03 00:17:33;;;;;;;3.38;1.52;;;1.90;99.90;;;;;;171225;28;1240;-71
2022/04/03 00:17:39;;;;;;;2.92;1.50;;;2.00;99.90;;;;;;171868;28;926;-71
2022/04/03 00:17:45;;;;;;;2.97;1.50;;;1.90;99.90;;;;;;171185;28;1460;-71
2022/04/03 00:17:51;;;;;;;2.25;1.45;;;1.90;99.90;;;;;;172537;28;1360;-71
2022/04/03 00:17:57;;;;;;;2.00;1.40;;;1.90;99.90;;;;;;172562;28;869;-72
2022/04/03 00:18:02;;;;;;;2.17;1.52;;;1.90;99.90;;;;;;172626;28;1006;-71
2022/04/03 00:18:09;;;;;;;2.10;1.50;;;1.90;99.90;;;;;;172491;28;1284;-72
2022/04/03 00:18:15;;;;;;;2.43;1.57;;;1.90;99.90;;;;;;171874;28;1482;-71
2022/04/03 00:18:21;;;;;;;2.97;1.67;;;1.90;99.90;;;;;;171902;28;853;-71
2022/04/03 00:18:27;;;;;;;3.10;1.77;;;1.90;99.90;;;;;;171229;28;892;-72
2022/04/03 00:18:33;;;;;;;3.40;1.80;;;2.00;99.90;;;;;;171130;28;1185;-72
2022/04/03 00:18:39;;;;;;;3.53;1.90;;;1.90;99.90;;;;;;170581;29;928;-72
2022/04/03 00:18:45;;;;;;;3.78;1.92;;;1.90;99.90;;;;;;171091;28;1406;-72
2022/04/03 00:18:51;;;;;;;3.38;1.83;;;1.90;99.90;;;;;;171156;28;1256;-71
2022/04/03 00:18:56;;;;;;;3.30;1.80;;;1.90;99.90;;;;;;171829;28;1352;-71
2022/04/03 00:19:02;;;;;;;3.13;1.77;;;1.90;99.90;;;;;;171871;28;1037;-72
2022/04/03 00:19:08;;;;;;;3.16;1.74;;;2.00;99.90;;;;;;171274;28;1842;-71
2022/04/03 00:19:14;;;;;;;3.03;1.63;;;1.90;99.90;;;;;;170338;29;927;-71
2022/04/03 00:19:19;;;;;;;4.47;1.63;;;1.90;99.90;;;;;;171113;28;1455;-71
2022/04/03 00:19:25;;;;;;;5.10;1.70;;;1.90;99.90;;;;;;171188;28;1184;-71
2022/04/03 00:19:30;;;;;;;4.90;1.60;;;1.90;99.90;;;;;;171109;28;1904;-71
2022/04/03 00:19:36;;;;;;;4.83;1.53;;;2.00;99.90;;;;;;171907;28;1114;-72
2022/04/03 00:19:42;;;;;;;4.65;1.60;;;2.00;99.90;;;;;;171794;28;1203;-71
2022/04/03 00:19:47;;;;;;;3.60;1.70;;;1.90;99.90;;;;;;171144;28;1331;-71
2022/04/03 00:19:53;;;;;;;3.00;1.70;;;1.90;99.90;;;;;;171213;28;911;-72
2022/04/03 00:19:59;;;;;;;3.37;1.80;;;2.00;99.90;;;;;;170562;28;896;-71
2022/04/03 00:20:05;;;;;;;4.23;1.90;;;1.90;99.90;;;;;;170588;28;967;-71
2022/04/03 00:20:12;;;;;;;4.22;1.85;;;1.90;99.90;;;;;;170496;29;1030;-72
2022/04/03 00:20:19;;;;;;;4.13;1.70;;;1.90;99.90;;;;;;170421;28;1578;-71
2022/04/03 00:20:24;;;;;;;3.90;1.70;;;1.90;99.90;;;;;;170590;29;912;-71
2022/04/03 00:20:30;;;;;;;3.57;1.73;;;1.90;99.90;;;;;;170455;28;1177;-71
2022/04/03 00:20:36;;;;;;;2.83;1.70;;;1.90;99.90;;;;;;171135;28;1406;-72
2022/04/03 00:20:42;;;;;;;3.30;1.80;;;1.90;99.90;;;;;;171191;28;855;-72
2022/04/03 00:20:48;;;;;;;3.40;1.80;;;2.00;99.90;;;;;;171187;28;895;-72
2022/04/03 00:20:53;;;;;;;3.53;1.75;;;1.90;99.90;;;;;;171882;28;884;-71
2022/04/03 00:21:00;;;;;;;3.65;1.67;;;1.90;99.90;;;;;;171896;28;927;-72
2022/04/03 00:21:06;;;;;;;3.73;1.70;;;1.90;99.90;;;;;;171141;28;1244;-72
2022/04/03 00:21:13;;;;;;;3.45;1.63;;;1.90;99.90;;;;;;171249;28;887;-71
2022/04/03 00:21:19;;;;;;;3.97;1.83;;;1.90;99.90;;;;;;171858;28;1291;-71
2022/04/03 00:21:24;;;;;;;3.95;1.98;;;1.90;99.90;;;;;;171929;28;907;-71
2022/04/03 00:21:30;;;;;;;3.85;1.98;;;1.90;99.90;;;;;;171247;28;1082;-71
2022/04/03 00:21:36;;;;;;;3.80;1.97;;;1.90;99.90;;;;;;171186;28;831;-71
2022/04/03 00:21:42;;;;;;;3.70;2.10;;;1.90;99.90;;;;;;170606;29;828;-72
2022/04/03 00:21:49;;;;;;;2.92;1.92;;;1.90;99.90;;;;;;170546;29;1221;-71
2022/04/03 00:21:54;;;;;;;2.73;1.83;;;1.90;99.90;;;;;;170542;29;982;-71
2022/04/03 00:22:01;;;;;;;2.90;1.90;;;1.90;99.90;;;;;;171202;28;1229;-71
2022/04/03 00:22:07;;;;;;;3.00;1.84;;;1.90;99.90;;;;;;171903;28;974;-71
2022/04/03 00:22:13;;;;;;;3.10;1.80;;;1.90;99.90;;;;;;172493;28;1127;-71
2022/04/03 00:22:19;;;;;;;3.23;1.77;;;1.90;99.90;;;;;;171731;28;1255;-71
2022/04/03 00:22:24;;;;;;;3.03;1.65;;;1.90;99.90;;;;;;171859;28;1051;-71
2022/04/03 00:22:30;;;;;;;3.03;1.50;;;1.90;99.90;;;;;;171199;28;1138;-71
2022/04/03 00:22:36;;;;;;;3.17;1.57;;;1.90;99.90;;;;;;171250;28;785;-73
2022/04/03 00:22:47;;;;;;;3.38;1.63;;;1.90;99.90;;;;;;171122;28;1324;-71
2022/04/03 00:22:53;;;;;;;3.38;1.65;;;1.90;99.90;;;;;;171160;28;1534;-71
2022/04/03 00:22:59;;;;;;;3.63;1.70;;;1.90;99.90;;;;;;172553;28;863;-71
2022/04/03 00:23:06;;;;;;;3.53;1.70;;;1.90;99.90;;;;;;172527;28;898;-71
2022/04/03 00:23:11;;;;;;;4.10;1.70;;;1.90;99.90;;;;;;171975;28;1006;-72
2022/04/03 00:23:17;;;;;;;4.38;1.67;;;1.90;99.90;;;;;;171925;28;936;-72
2022/04/03 00:23:23;;;;;;;4.35;1.77;;;1.90;99.90;;;;;;170637;29;1316;-71
2022/04/03 00:23:29;;;;;;;4.30;1.90;;;1.90;99.90;;;;;;170648;29;950;-72
2022/04/03 00:23:34;;;;;;;4.27;1.90;;;1.90;99.90;;;;;;170642;29;965;-71
2022/04/03 00:23:40;;;;;;;4.03;1.88;;;1.90;99.90;;;;;;171241;28;868;-71
2022/04/03 00:23:48;;;;;;;3.42;1.83;;;1.90;99.90;;;;;;171939;28;1464;-72
2022/04/03 00:23:53;;;;;;;3.42;1.86;;;1.90;99.90;;;;;;171906;28;998;-71
2022/04/03 00:24:00;;;;;;;3.33;1.85;;;1.90;99.90;;;;;;171993;28;950;-71
2022/04/03 00:24:06;;;;;;;3.10;1.90;;;1.90;99.90;;;;;;171205;28;872;-71
2022/04/03 00:24:12;;;;;;;2.83;1.90;;;1.90;99.90;;;;;;171229;28;1321;-72
2022/04/03 00:24:17;;;;;;;2.77;1.90;;;1.90;99.90;;;;;;171124;28;1455;-71
2022/04/03 00:24:23;;;;;;;2.90;1.80;;;1.90;99.90;;;;;;171852;28;919;-72
2022/04/03 00:24:28;;;;;;;2.80;1.80;;;1.90;99.90;;;;;;171152;28;1285;-71
2022/04/03 00:24:34;;;;;;;2.65;1.73;;;1.90;99.90;;;;;;172012;28;876;-71
2022/04/03 00:24:41;;;;;;;2.70;1.77;;;2.00;99.90;;;;;;170474;29;1330;-72
2022/04/03 00:24:46;;;;;;;2.63;1.70;;;1.90;99.90;;;;;;171207;28;1251;-72
2022/04/03 00:24:52;;;;;;;2.67;1.85;;;1.90;99.90;;;;;;172358;28;1570;-72
2022/04/03 00:24:57;;;;;;;3.00;1.90;;;1.90;99.90;;;;;;172532;28;1327;-72
2022/04/03 00:25:04;;;;;;;3.20;1.90;;;1.90;99.90;;;;;;171817;28;904;-71
2022/04/03 00:25:11;;;;;;;3.33;1.80;;;1.90;99.90;;;;;;171218;28;947;-72
2022/04/03 00:25:18;;;;;;;3.70;1.83;;;1.90;99.90;;;;;;171750;28;1442;-72
2022/04/03 00:25:23;;;;;;;3.60;1.60;;;1.90;99.90;;;;;;171220;28;931;-72
2022/04/03 00:25:29;;;;;;;3.00;1.40;;;1.90;99.90;;;;;;171256;28;1045;-72
2022/04/03 00:25:35;;;;;;;2.83;1.40;;;1.90;99.90;;;;;;171774;28;1296;-72
2022/04/03 00:25:41;;;;;;;2.92;1.45;;;1.90;99.90;;;;;;171842;28;1184;-71
2022/04/03 00:25:46;;;;;;;2.97;1.40;;;1.90;99.90;;;;;;171152;28;896;-72
2022/04/03 00:25:52;;;;;;;3.58;1.52;;;1.80;99.90;;;;;;171188;28;1287;-72
2022/04/03 00:25:58;;;;;;;3.97;1.60;;;1.90;99.90;;;;;;172648;28;908;-71
2022/04/03 00:26:03;;;;;;;3.95;1.60;;;1.90;99.90;;;;;;171868;28;1317;-71
2022/04/03 00:26:09;;;;;;;4.28;1.65;;;1.90;99.90;;;;;;172586;28;919;-71
2022/04/03 00:26:14;;;;;;;3.77;1.73;;;1.90;99.90;;;;;;171194;28;1188;-71
2022/04/03 00:26:20;;;;;;;3.72;1.83;;;1.90;99.90;;;;;;171317;28;832;-72
2022/04/03 00:26:26;;;;;;;3.13;1.70;;;1.90;99.90;;;;;;171814;28;1195;-72
2022/04/03 00:26:31;;;;;;;3.38;1.80;;;1.90;99.90;;;;;;171957;28;864;-72
2022/04/03 00:26:37;;;;;;;3.30;1.80;;;1.90;99.90;;;;;;171869;28;955;-71
2022/04/03 00:26:42;;;;;;;2.93;1.87;;;1.90;99.90;;;;;;171255;28;1487;-71
2022/04/03 00:26:48;;;;;;;2.95;1.80;;;1.90;99.90;;;;;;171285;28;975;-72
2022/04/03 00:26:53;;;;;;;3.23;1.90;;;1.90;99.90;;;;;;170615;29;889;-72
2022/04/03 00:26:59;;;;;;;3.20;1.88;;;1.90;99.90;;;;;;170637;29;932;-72
2022/04/03 00:27:05;;;;;;;3.13;1.80;;;1.90;99.90;;;;;;171323;28;860;-71
2022/04/03 00:27:11;;;;;;;3.53;1.83;;;1.90;99.90;;;;;;171261;28;888;-71
2022/04/03 00:27:16;;;;;;;5.40;1.73;;;1.90;99.90;;;;;;171201;28;868;-72
2022/04/03 00:27:22;;;;;;;5.28;1.70;;;1.90;99.90;;;;;;171169;28;1219;-71
2022/04/03 00:27:27;;;;;;;5.10;1.70;;;1.90;99.90;;;;;;170511;28;1326;-71
2022/04/03 00:27:33;;;;;;;5.20;1.80;;;1.90;99.90;;;;;;170533;29;899;-72
2022/04/03 00:27:38;;;;;;;5.53;1.70;;;1.90;99.90;;;;;;171148;28;1296;-72
2022/04/03 00:27:45;;;;;;;3.92;1.70;;;1.90;99.90;;;;;;171752;28;1196;-72
2022/04/03 00:27:51;;;;;;;3.70;1.73;;;1.90;99.90;;;;;;170658;29;963;-72
2022/04/03 00:27:56;;;;;;;3.90;1.80;;;1.90;99.90;;;;;;171287;28;947;-72
2022/04/03 00:28:02;;;;;;;3.92;1.70;;;1.90;99.90;;;;;;171207;28;1291;-72
2022/04/03 00:28:08;;;;;;;3.80;1.77;;;1.90;99.90;;;;;;171859;28;1314;-72
2022/04/03 00:28:13;;;;;;;3.20;1.70;;;1.90;99.90;;;;;;171833;28;1315;-72
2022/04/03 00:28:20;;;;;;;3.20;1.67;;;1.90;99.90;;;;;;171260;28;1265;-72
2022/04/03 00:28:30;;;;;;;3.20;1.70;;;1.90;99.90;;;;;;171945;28;1141;-71
2022/04/03 00:28:36;;;;;;;2.98;1.70;;;1.90;99.90;;;;;;171848;28;1800;-72
2022/04/03 00:28:42;;;;;;;2.90;1.80;;;1.90;99.90;;;;;;172035;28;1180;-72
2022/04/03 00:28:48;;;;;;;3.04;1.80;;;1.90;99.90;;;;;;172113;28;891;-72
2022/04/03 00:28:53;;;;;;;3.07;1.67;;;1.90;99.90;;;;;;171393;28;1243;-72
2022/04/03 00:28:59;;;;;;;3.25;1.60;;;1.90;99.90;;;;;;171273;28;1267;-72
2022/04/03 00:29:04;;;;;;;3.37;1.60;;;1.90;99.90;;;;;;169994;28;1268;-72
2022/04/03 00:29:10;;;;;;;3.72;1.65;;;1.90;99.90;;;;;;171362;28;1081;-72
2022/04/03 00:29:16;;;;;;;3.92;1.63;;;1.90;99.90;;;;;;171508;28;903;-71
2022/04/03 00:29:23;;;;;;;3.77;1.70;;;1.90;99.90;;;;;;170734;28;1148;-71
2022/04/03 00:29:28;;;;;;;3.60;1.70;;;1.90;99.90;;;;;;170911;29;950;-72
2022/04/03 00:29:34;;;;;;;3.40;1.73;;;1.90;99.90;;;;;;172328;28;1677;-72
2022/04/03 00:29:40;;;;;;;3.13;1.67;;;1.90;99.90;;;;;;171575;28;1180;-72
2022/04/03 00:29:45;;;;;;;2.83;1.70;;;1.90;99.90;;;;;;171567;28;1065;-72
2022/04/03 00:29:51;;;;;;;2.70;1.70;;;1.90;99.90;;;;;;170326;28;1248;-72
2022/04/03 00:29:56;;;;;;;2.67;1.70;;;1.90;99.90;;;;;;170984;29;1082;-72
2022/04/03 00:30:02;;;;;;;3.20;1.83;;;1.90;99.90;;;;;;171025;28;1510;-73
2022/04/03 00:30:08;;;;;;;3.35;1.95;;;1.90;99.90;;;;;;170962;28;1415;-72
2022/04/03 00:30:14;;;;;;;4.17;2.00;;;1.90;99.90;;;;;;170932;29;1875;-72
2022/04/03 00:30:20;;;;;;;4.25;2.00;;;1.90;99.90;;;;;;171046;28;1259;-72
2022/04/03 00:30:26;;;;;;;4.07;1.92;;;1.90;99.90;;;;;;171166;29;1083;-72
2022/04/03 00:30:32;;;;;;;3.87;1.80;;;1.90;99.90;;;;;;171258;29;1046;-72
2022/04/03 00:30:37;;;;;;;3.90;1.63;;;1.90;99.90;;;;;;172402;28;1466;-71
2022/04/03 00:30:44;;;;;;;3.07;1.60;;;1.90;99.90;;;;;;172584;28;796;-72
2022/04/03 00:30:49;;;;;;;3.03;1.60;;;1.90;99.90;;;;;;172490;28;1161;-72
2022/04/03 00:30:55;;;;;;;3.30;1.85;;;1.90;99.90;;;;;;171870;28;1278;-72
2022/04/03 00:31:01;;;;;;;2.97;1.90;;;1.90;99.90;;;;;;171814;28;1157;-73
2022/04/03 00:31:06;;;;;;;2.83;1.90;;;1.90;99.90;;;;;;171190;29;1284;-72
2022/04/03 00:31:12;;;;;;;3.25;1.92;;;1.90;99.90;;;;;;171445;29;1070;-72
2022/04/03 00:31:18;;;;;;;3.10;1.83;;;1.90;99.90;;;;;;171414;29;1070;-72
2022/04/03 00:31:24;;;;;;;3.03;1.77;;;1.90;99.90;;;;;;171131;29;1330;-72
2022/04/03 00:31:29;;;;;;;3.27;1.70;;;1.90;99.90;;;;;;171392;29;1149;-72
2022/04/03 00:31:35;;;;;;;3.30;1.67;;;1.90;99.90;;;;;;171397;29;1185;-72
2022/04/03 00:31:41;;;;;;;3.30;1.70;;;1.90;99.90;;;;;;172083;28;1030;-72
2022/04/03 00:31:46;;;;;;;3.73;1.83;;;1.90;99.90;;;;;;171625;28;1447;-71
2022/04/03 00:31:52;;;;;;;4.03;1.80;;;1.90;99.90;;;;;;171442;29;1039;-72
2022/04/03 00:31:58;;;;;;;3.95;1.77;;;1.90;99.90;;;;;;171830;28;1046;-72
2022/04/03 00:32:04;;;;;;;3.70;1.67;;;1.90;99.90;;;;;;171983;28;1034;-72
2022/04/03 00:32:09;;;;;;;3.47;1.63;;;1.90;99.90;;;;;;172024;28;876;-72
2022/04/03 00:32:15;;;;;;;3.00;1.63;;;1.90;99.90;;;;;;172232;28;641;-72
2022/04/03 00:32:21;;;;;;;2.83;1.65;;;1.90;99.90;;;;;;172599;28;855;-72